Tiempo atmosférico en la estación meteorológica de Valencia De Don Juan, León (788 m.)



Fecha
DESCASC
Temp. máxima en grados centígrados (hora)
DESCASC
Temp. mínima en grados centígrados (hora)
DESCASC
Temp. media en grados centígrados
DESCASC
Racha de viento máxima en m/sg (hora)
DESCASC
Velocidad máxima media en intervalos de 10 minutos(hora)
DESCASC
Precipitaciones diarias en mm
DESCASC
Precipitaciones de 00:00 a 06:00 en mm
DESCASC
Precipitaciones de 06:00 a 12:00 en mm
DESCASC
Precipitaciones de 12:00 a 18:00 en mm
DESCASC
Precipitaciones de 18:00 a 24:00 en mm
DESCASC
11-12-2019 7.5 (15:10) 0.7 (03:50) 4.1 14.17 (14:20) 9.44 (14:00) 1 0.8 0.2 0 0
10-12-2019 4.7 (15:20) -2.5 (05:50) 1.1 5 (17:50) 4.17 (17:40) 0 0 0 0 0
09-12-2019 8.9 (14:30) -0.7 (06:20) 4.1 5.28 (09:10) 4.17 (09:10) 0.2 0 0 0.2 0
08-12-2019 6.6 (16:20) 2.3 (00:00) 4.4 3.61 (03:20) 2.5 (03:20) 1.4 0 0.6 0.6 0.2
07-12-2019 8.5 (15:30) -0.3 (00:00) 4.1 4.17 (16:00) 3.33 (16:00) 0 0 0 0 0
06-12-2019 9.9 (15:10) -0.9 (-00:0) 4.5 5.28 (04:40) 4.72 (07:50) 0 0 0 0 0
05-12-2019 10.4 (14:10) 0.2 (00:00) 5.3 13.89 (15:20) 10.83 (15:20) 0 0 0 0 0
04-12-2019 10.4 (16:00) -2.8 (-00:0) 3.8 5.83 (15:30) 4.17 (21:00) 0 0 0 0 0
03-12-2019 6.9 (15:20) -3.6 (-00:0) 1.7 6.11 (16:40) 5.28 (18:40) 0 0 0 0 0
02-12-2019 10.2 (15:10) 0.1 (00:00) 5.1 9.44 (15:20) 7.22 (15:20) 0 0 0 0 0
01-12-2019 7.8 (15:40) 3.9 (00:00) 5.9 9.72 (00:50) 7.22 (00:50) 3.2 0.8 2.2 0.2 0
30-11-2019 12.1 (11:10) 4.7 (00:00) 8.4 12.78 (11:00) 8.61 (07:30) 4.8 0.2 1.6 3 0
29-11-2019 12.9 (15:20) 6.9 (00:00) 9.9 6.94 (00:20) 4.72 (02:40) 1 0 0 0 1
28-11-2019 11.9 (14:40) 7.7 (00:00) 9.8 15.83 (15:00) 10.83 (15:00) 0.2 0 0 0 0.2
27-11-2019 9.8 (16:40) 6.5 (00:00) 8.2 13.33 (00:20) 8.89 (00:30) 1.6 0 0 1.4 0.2
26-11-2019 14.6 (14:50) 7.9 (00:00) 11.3 16.67 (17:00) 11.39 (19:20) 0.4 0 0.4 0 0
25-11-2019 13 (13:50) 7.5 (00:00) 10.3 8.61 (13:30) 6.39 (15:00) 0 0 0 0 0
24-11-2019 8.5 (14:50) 2.4 (00:00) 5.5 9.72 (21:20) 7.22 (21:10) 1.4 0 0 0.2 1.2
23-11-2019 9.5 (14:50) 3.7 (00:00) 6.6 18.89 (04:20) 11.11 (05:50) 0 0 0 0 0
22-11-2019 12.3 (15:30) 5.1 (00:00) 8.7 -- (--) -- (--) -- 0.6 -- 1.4 0.4
21-11-2019 9.6 (15:40) 4 (00:00) 6.8 9.72 (16:30) 7.22 (16:30) 0.6 0.2 0.2 0.2 0
20-11-2019 6 (12:40) 4.5 (00:00) 5.3 9.17 (20:50) 6.67 (20:50) 4.6 0.4 3 1 0.2
19-11-2019 -- (--) -- (--) -- -- (--) -- (--) -- -- -- 0 0
18-11-2019 -- (--) -- (--) -- -- (--) -- (--) -- -- -- -- --
17-11-2019 -- (--) -- (--) -- -- (--) -- (--) -- -- -- -- --
16-11-2019 -- (--) -- (--) -- -- (--) -- (--) -- -- -- -- --
15-11-2019 -- (--) -- (--) -- -- (--) -- (--) -- -- -- -- --

Gráficas

Temp. máximas Temp. mínimas Temp. medias Precipitaciones Rachas de viento máximas Velocidades máximas media en intervalos de 10 minutos

Datos horarios

Fecha y hora oficial Temperatura (ºC) Velocidad del viento (km/h) Dirección del viento Racha (km/h) Dirección de racha Precipitación (mm) Presión (hPa) Tendencia (hPa) Humedad (%)
2019-12-14 23:00:00 8.2 36 Sudoeste 47 Sudoeste 0 -- -- 90
2019-12-14 22:00:00 8.5 21 Sudoeste 42 Sudoeste 0 -- -- 89
2019-12-14 21:00:00 8.4 25 Sudoeste 36 Sudoeste 0 -- -- 87
2019-12-14 20:00:00 8.4 25 Sudoeste 41 Sudoeste 0 -- -- 86
2019-12-14 19:00:00 8.7 19 Sudoeste 37 Sudoeste 0 -- -- 85
2019-12-14 18:00:00 9 19 Sudoeste 37 Sudoeste 0 -- -- 83
2019-12-14 17:00:00 9.5 29 Sudoeste 47 Sudoeste 0 -- -- 83
2019-12-14 16:00:00 10.4 28 Sudoeste 44 Sudoeste 0 -- -- 77
2019-12-14 15:00:00 10.7 29 Sudoeste 41 Sudoeste 0 -- -- 77
2019-12-14 14:00:00 10.4 23 Sudoeste 35 Sudoeste 0 -- -- 79
2019-12-14 13:00:00 9.6 20 Sudoeste 32 Sudoeste 0 -- -- 82
2019-12-14 12:00:00 9 20 Sudoeste 29 Sudoeste 0 -- -- 86
2019-12-14 11:00:00 8 15 Sudoeste 24 Sudoeste 0 -- -- 90
2019-12-14 10:00:00 6.9 13 Sur 19 Sur 0 -- -- 91
2019-12-14 09:00:00 5.7 14 Sur 23 Sur 0 -- -- 93
2019-12-14 08:00:00 5.5 16 Sur 20 Sur 0 -- -- 92
2019-12-14 07:00:00 6 13 Sur 18 Sudoeste 0 -- -- 91
2019-12-14 06:00:00 5.6 15 Sudoeste 19 Sudoeste 0 -- -- 91
2019-12-14 05:00:00 5.5 14 Sudoeste 26 Sudoeste 0 -- -- 91
2019-12-14 04:00:00 5.9 19 Oeste 27 Oeste 0 -- -- 88
2019-12-14 03:00:00 5.5 13 Sudoeste 20 Sudoeste 0 -- -- 86
2019-12-14 02:00:00 6.1 16 Sudoeste 22 Sudoeste 0 -- -- 83
2019-12-14 01:00:00 6.4 11 Oeste 23 Oeste 0 -- -- 78
2019-12-14 00:00:00 6.8 10 Sur 23 Sudoeste 0 -- -- 77
2019-12-13 23:00:00 8.7 18 Oeste 47 Oeste 0 -- -- 68
2019-12-13 22:00:00 9.6 36 Oeste 55 Oeste 0 -- -- 64
2019-12-13 21:00:00 9.7 23 Oeste 43 Oeste 0 -- -- 69
2019-12-13 20:00:00 10 23 Oeste 47 Oeste 0 -- -- 70
2019-12-13 19:00:00 11.4 27 Oeste 41 Oeste 0 -- -- 66
2019-12-13 18:00:00 12.2 21 Oeste 50 Oeste 0 -- -- 64
2019-12-13 17:00:00 12.9 23 Oeste 50 Oeste 0 -- -- 66
2019-12-13 16:00:00 13.2 35 Oeste 60 Oeste 0 -- -- 67
2019-12-13 15:00:00 14.5 40 Oeste 57 Oeste 0 -- -- 64
2019-12-13 14:00:00 14.3 41 Oeste 60 Oeste 0 -- -- 64
2019-12-13 13:00:00 14 35 Oeste 59 Oeste 0 -- -- 65
2019-12-13 12:00:00 13.4 42 Oeste 57 Oeste 0 -- -- 68
2019-12-13 11:00:00 12.8 34 Oeste 55 Oeste 0 -- -- 72
2019-12-13 10:00:00 12.2 37 Oeste 52 Oeste 0 -- -- 72
2019-12-13 09:00:00 11.9 29 Oeste 55 Oeste 0 -- -- 72
2019-12-13 08:00:00 12 35 Oeste 53 Oeste 0 -- -- 70
2019-12-13 07:00:00 12 34 Oeste 55 Oeste 0 -- -- 70
2019-12-13 06:00:00 11.9 38 Oeste 57 Oeste 0 -- -- 70
2019-12-13 05:00:00 12 38 Oeste 61 Oeste 0 -- -- 71
2019-12-13 04:00:00 12.3 41 Oeste 56 Oeste 0 -- -- 71
2019-12-13 03:00:00 12.3 37 Oeste 57 Oeste 0 -- -- 73
2019-12-13 02:00:00 12 34 Oeste 57 Oeste 0 -- -- 75
2019-12-13 01:00:00 11.3 28 Oeste 43 Oeste 0 -- -- 79
2019-12-13 00:00:00 11.3 29 Oeste 45 Oeste 0 -- -- 77
2019-12-12 23:00:00 11.3 26 Oeste 51 Oeste 0 -- -- 77
2019-12-12 22:00:00 11.4 31 Oeste 49 Oeste 0 -- -- 76
2019-12-12 21:00:00 11.1 31 Oeste 46 Oeste 0 -- -- 77
2019-12-12 20:00:00 11.2 33 Oeste 46 Oeste 0 -- -- 76
2019-12-12 19:00:00 8.2 19 Sudoeste 28 Oeste 0 -- -- 87
2019-12-12 18:00:00 8.7 22 Oeste 35 Sudoeste 0 -- -- 84
2019-12-12 17:00:00 9.2 25 Oeste 39 Sudoeste 0 -- -- 82
2019-12-12 16:00:00 9.4 27 Sudoeste 44 Sudoeste 0 -- -- 78
2019-12-12 15:00:00 9.2 32 Sudoeste 44 Sudoeste 0 -- -- 75
2019-12-12 14:00:00 8.5 30 Sudoeste 54 Oeste 0 -- -- 77
2019-12-12 13:00:00 8.4 33 Sudoeste 57 Sudoeste 0 -- -- 78
2019-12-12 12:00:00 7.2 32 Sudoeste 52 Sudoeste 0 -- -- 81
2019-12-12 11:00:00 6.1 25 Sudoeste 41 Sudoeste 0 -- -- 86
2019-12-12 10:00:00 5.8 29 Sudoeste 42 Sudoeste 0 -- -- 86
2019-12-12 09:00:00 5 23 Sudoeste 34 Sudoeste 0 -- -- 87
2019-12-12 08:00:00 4.4 17 Sudoeste 34 Sudoeste 0 -- -- 89
2019-12-12 07:00:00 4.6 24 Sudoeste 34 Sudoeste 0 -- -- 90
2019-12-12 06:00:00 4.3 23 Sudoeste 32 Sudoeste 0 -- -- 91
2019-12-12 05:00:00 4 15 Sudoeste 26 Sudoeste 0 -- -- 91
2019-12-12 04:00:00 3.6 13 Sudoeste 30 Sudoeste 0 -- -- 90
2019-12-12 03:00:00 3.8 16 Sudoeste 31 Sudoeste 0 -- -- 89
2019-12-12 02:00:00 3.9 23 Sudoeste 32 Sudoeste 0 -- -- 86
2019-12-12 01:00:00 4.2 19 Sudoeste 27 Sudoeste 0 -- -- 81
2019-12-12 00:00:00 4.1 16 Sudoeste 32 Sudoeste 0 -- -- 83
2019-12-11 23:00:00 4.3 15 Sudoeste 24 Oeste 0 -- -- 79
2019-12-11 22:00:00 5.3 24 Oeste 38 Oeste 0 -- -- 77
2019-12-11 21:00:00 4.8 25 Oeste 34 Oeste 0 -- -- 78
2019-12-11 20:00:00 4.9 17 Oeste 30 Oeste 0 -- -- 75
2019-12-11 19:00:00 5.5 19 Sudoeste 31 Oeste 0 -- -- 72
2019-12-11 18:00:00 6.2 20 Oeste 31 Oeste 0 -- -- 69
2019-12-11 17:00:00 6.6 18 Oeste 39 Oeste 0 -- -- 64
2019-12-11 16:00:00 7.2 22 Oeste 40 Oeste 0 -- -- 61
2019-12-11 15:00:00 7.4 28 Noroeste 51 Oeste 0 -- -- 59
2019-12-11 14:00:00 6.8 34 Noroeste 49 Oeste 0 -- -- 63
2019-12-11 13:00:00 6.6 32 Noroeste 42 Noroeste 0 -- -- 65
2019-12-11 12:00:00 5.9 32 Oeste 45 Noroeste 0 -- -- 74
2019-12-11 11:00:00 5.4 29 Noroeste 44 Oeste 0 -- -- 83
2019-12-11 10:00:00 2.9 14 Noroeste 21 Noroeste 0.2 -- -- 97
2019-12-11 09:00:00 1.7 6 Oeste 15 Oeste 0 -- -- 97
2019-12-11 08:00:00 1.7 9 Nordeste 18 Norte 0 -- -- 97
2019-12-11 07:00:00 1.8 12 Noroeste 15 Noroeste 0 -- -- 97
2019-12-11 06:00:00 1.8 12 Sudeste 15 Sudeste 0.8 -- -- 97
2019-12-11 05:00:00 0.9 10 Norte 13 Norte 0 -- -- 97
2019-12-11 04:00:00 0.7 5 Sur 10 Sudeste 0 -- -- 97
2019-12-11 03:00:00 1.3 4 Este 9 Sudeste 0 -- -- 96
2019-12-11 02:00:00 1.7 2 Sudoeste 9 Sur 0 -- -- 96
2019-12-11 01:00:00 2.2 5 Sur 9 Sur 0 -- -- 96
2019-12-11 00:00:00 2.3 0 Calma 6 Oeste 0 -- -- 96
2019-12-10 23:00:00 2.6 4 Sur 9 Sudoeste 0 -- -- 96
2019-12-10 22:00:00 2.9 5 Oeste 10 Oeste 0 -- -- 95
2019-12-10 21:00:00 2.8 3 Oeste 6 Noroeste 0 -- -- 95
2019-12-10 20:00:00 2.9 0 Calma 8 Sur 0 -- -- 94
2019-12-10 19:00:00 3.3 5 Sur 15 Sur 0 -- -- 93
2019-12-10 18:00:00 3.8 11 Sur 18 Sur 0 -- -- 92
2019-12-10 17:00:00 4.4 9 Sur 12 Sur 0 -- -- 90
2019-12-10 16:00:00 4.4 7 Sur 15 Sur 0 -- -- 95
2019-12-10 15:00:00 4.6 6 Sur 12 Sudoeste 0 -- -- 97
2019-12-10 14:00:00 3 6 Sudoeste 10 Sudoeste 0 -- -- 97
2019-12-10 13:00:00 2.4 3 Sudoeste 7 Oeste 0 -- -- 97
2019-12-10 12:00:00 1.1 0 Calma 0 Calma 0 -- -- 96
2019-12-10 11:00:00 0.1 0 Calma -- -- 0 -- -- 97
2019-12-10 10:00:00 -0.8 0 Calma 3 Sudeste 0 -- -- 96
2019-12-10 09:00:00 -1.2 0 Calma 10 Este 0 -- -- 96
2019-12-10 08:00:00 -1 4 Norte 10 Nordeste 0 -- -- 95
2019-12-10 07:00:00 -1.5 6 Nordeste 8 Nordeste 0 -- -- 95
2019-12-10 06:00:00 -2.4 4 Nordeste 5 Nordeste 0 -- -- 94
2019-12-10 05:00:00 -2.4 3 Norte 6 Nordeste 0 -- -- 93
2019-12-10 04:00:00 -2.1 4 Norte 8 Norte 0 -- -- 92
2019-12-10 03:00:00 -1.2 7 Norte 9 Este 0 -- -- 89
2019-12-10 02:00:00 0.3 7 Nordeste 11 Nordeste 0 -- -- 91
2019-12-10 01:00:00 3.4 0 Calma 5 Este 0 -- -- 83
2019-12-10 00:00:00 3.2 4 Nordeste 6 Este 0 -- -- 86
2019-12-09 23:00:00 2.4 5 Norte 10 Oeste 0 -- -- 89
2019-12-09 22:00:00 3.4 6 Nordeste 10 Norte 0 -- -- 85
2019-12-09 21:00:00 3.6 9 Norte 11 Norte 0 -- -- 86
2019-12-09 20:00:00 4.8 5 Noroeste 8 Norte 0 -- -- 85
2019-12-09 19:00:00 5.9 4 Oeste 9 Norte 0 -- -- 82
2019-12-09 18:00:00 7.1 4 Oeste 10 Norte 0 -- -- 77
2019-12-09 17:00:00 8 8 Norte 14 Noroeste 0 -- -- 75
2019-12-09 16:00:00 8.4 9 Noroeste 14 Sur 0 -- -- 76
2019-12-09 15:00:00 8.5 9 Sur 12 Sudoeste 0 -- -- 75
2019-12-09 14:00:00 8.4 9 Sudoeste 14 Sudoeste 0 -- -- 75
2019-12-09 13:00:00 7.8 2 Noroeste 6 Norte 0.2 -- -- 73
2019-12-09 12:00:00 5.4 3 Sudoeste 8 Sudeste 0 -- -- 76
2019-12-09 11:00:00 3.2 4 Este 9 Sur 0 -- -- 83
2019-12-09 10:00:00 0.9 4 Sur 19 Sur 0 -- -- 94
2019-12-09 09:00:00 -0.1 14 Sur 18 Sur 0 -- -- 97
2019-12-09 08:00:00 0.1 9 Sur 12 Sur 0 -- -- 97
2019-12-09 07:00:00 0.1 10 Sur 15 Sur 0 -- -- 97
2019-12-09 06:00:00 -0.4 10 Sur 14 Sur 0 -- -- 97
2019-12-09 05:00:00 0.8 10 Sur 15 Sudoeste 0 -- -- 97
2019-12-09 04:00:00 1.7 9 Sur 12 Sur 0 -- -- 96
2019-12-09 03:00:00 2.7 6 Norte 13 Noroeste 0 -- -- 97
2019-12-09 02:00:00 2.2 6 Norte 9 Noroeste 0 -- -- 98
2019-12-09 01:00:00 2.3 0 Calma 5 Este 0 -- -- 97
2019-12-09 00:00:00 2.3 3 Este 7 Nordeste 0 -- -- 96
2019-12-08 23:00:00 3.7 0 Calma -- -- 0.2 -- -- 96
2019-12-08 22:00:00 4.8 0 Calma 5 Nordeste 0 -- -- 97
2019-12-08 21:00:00 5.2 4 Nordeste 9 Nordeste 0 -- -- 96
2019-12-08 20:00:00 5.7 4 Nordeste 12 Noroeste 0 -- -- 96
2019-12-08 19:00:00 6.1 6 Norte 9 Norte 0 -- -- 96
2019-12-08 18:00:00 6.5 0 Calma 5 Sudoeste 0 -- -- 96
2019-12-08 17:00:00 6.6 2 Sudeste 7 Oeste 0 -- -- 96
2019-12-08 16:00:00 6.4 6 Sudoeste 10 Sudoeste 0 -- -- 96
2019-12-08 15:00:00 6.1 4 Sudoeste 13 Sudoeste 0.2 -- -- 97
2019-12-08 14:00:00 5.8 4 Sur 9 Sudoeste 0 -- -- 97
2019-12-08 13:00:00 5.2 0 Calma -- -- 0.4 -- -- 97
2019-12-08 12:00:00 4.6 0 Calma -- -- 0.4 -- -- 97
2019-12-08 11:00:00 4 0 Calma 10 Sur 0 -- -- 97
2019-12-08 10:00:00 3.6 8 Sudoeste 12 Sudoeste 0.2 -- -- 97
2019-12-08 09:00:00 3.3 4 Sudoeste 13 Sur 0 -- -- 97
2019-12-08 08:00:00 3.7 8 Sur 11 Sur 0 -- -- 97
2019-12-08 07:00:00 3.7 5 Oeste 8 Sudoeste 0 -- -- 97
2019-12-08 06:00:00 3.6 2 Nordeste 7 Nordeste 0 -- -- 97
2019-12-08 05:00:00 3.4 0 Calma 4 Sudoeste 0 -- -- 97
2019-12-08 04:00:00 3.3 3 Sudoeste 13 Este 0 -- -- 97
2019-12-08 03:00:00 3.3 0 Calma 9 Nordeste 0 -- -- 96
2019-12-08 02:00:00 3.3 0 Calma 12 Sudeste 0 -- -- 96
2019-12-08 01:00:00 3.7 0 Calma -- -- 0 -- -- 96
2019-12-08 00:00:00 3.8 0 Calma -- -- 0 -- -- 96
2019-12-07 23:00:00 3.9 0 Calma 2 Noroeste 0 -- -- 96
2019-12-07 22:00:00 3.8 3 Sudeste 13 Noroeste 0 -- -- 96
2019-12-07 21:00:00 3.5 0 Calma 7 Sur 0 -- -- 95
2019-12-07 20:00:00 4.7 7 Sur 13 Sudeste 0 -- -- 95
2019-12-07 19:00:00 4.8 11 Sudeste 15 Sudeste 0 -- -- 93
2019-12-07 18:00:00 5.8 8 Sudeste 14 Sudeste 0 -- -- 89
2019-12-07 17:00:00 7.4 10 Sudeste 14 Sudeste 0 -- -- 86
2019-12-07 16:00:00 8 12 Sudeste 15 Sur 0 -- -- 86
2019-12-07 15:00:00 7.3 8 Sur 12 Sur 0 -- -- 97
2019-12-07 14:00:00 5.1 3 Sur 10 Sudoeste 0 -- -- 97
2019-12-07 13:00:00 4 3 Sur 6 Sudeste 0 -- -- 96
2019-12-07 12:00:00 3.1 3 Este 7 Nordeste 0 -- -- 97
2019-12-07 11:00:00 1.7 0 Calma 8 Norte 0 -- -- 96
2019-12-07 10:00:00 1.5 0 Calma -- -- 0 -- -- 96
2019-12-07 09:00:00 1.1 0 Calma -- -- 0 -- -- 96
2019-12-07 08:00:00 0.6 0 Calma 5 Sudeste 0 -- -- 96
2019-12-07 07:00:00 0.1 3 Sudeste 6 Sudeste 0 -- -- 96
2019-12-07 06:00:00 0 4 Norte 9 Noroeste 0 -- -- 95
2019-12-07 05:00:00 0.9 3 Norte 8 Este 0 -- -- 94
2019-12-07 04:00:00 1.2 5 Nordeste 10 Noroeste 0 -- -- 94
2019-12-07 03:00:00 2.2 4 Nordeste 8 Norte 0 -- -- 95
2019-12-07 02:00:00 2.5 4 Nordeste 9 Norte 0 -- -- 92
2019-12-07 01:00:00 3.6 6 Este 10 Norte 0 -- -- 93
2019-12-07 00:00:00 4 0 Calma 11 Sur 0 -- -- 89
2019-12-06 23:00:00 4.9 0 Calma 2 Norte 0 -- -- 90
2019-12-06 22:00:00 4.8 2 Sudoeste 4 Sur 0 -- -- 88
2019-12-06 21:00:00 5.6 3 Sur 10 Sur 0 -- -- 86
2019-12-06 20:00:00 5.8 10 Sudeste 12 Sudeste 0 -- -- 86
2019-12-06 19:00:00 6.8 7 Sur 9 Sur 0 -- -- 79
2019-12-06 18:00:00 8 5 Sur 7 Sur 0 -- -- 76
2019-12-06 17:00:00 8.7 4 Sudoeste 6 Sudoeste 0 -- -- 74
2019-12-06 16:00:00 9.2 6 Oeste 9 Oeste 0 -- -- 71
2019-12-06 15:00:00 9.8 2 Sur 5 Sudeste 0 -- -- 68
2019-12-06 14:00:00 8.7 0 Calma 7 Oeste 0 -- -- 72
2019-12-06 13:00:00 7.7 3 Oeste 8 Noroeste 0 -- -- 76
2019-12-06 12:00:00 5.6 2 Nordeste 6 Este 0 -- -- 87
2019-12-06 11:00:00 2.4 3 Nordeste 7 Noroeste 0 -- -- 93
2019-12-06 10:00:00 0.1 4 Norte 9 Nordeste 0 -- -- 93
2019-12-06 09:00:00 0 6 Nordeste 13 Norte 0 -- -- 92
2019-12-06 08:00:00 -0.2 9 Nordeste 18 Este 0 -- -- 91
2019-12-06 07:00:00 -0.1 9 Nordeste 18 Nordeste 0 -- -- 91
2019-12-06 06:00:00 -0.6 9 Norte 18 Nordeste 0 -- -- 92
2019-12-06 05:00:00 1.3 16 Nordeste 19 Este 0 -- -- 93
2019-12-06 04:00:00 0.4 10 Nordeste 13 Norte 0 -- -- 94
2019-12-06 03:00:00 0.3 10 Norte 12 Norte 0 -- -- 93
2019-12-06 02:00:00 1.2 8 Nordeste 13 Este 0 -- -- 92
2019-12-06 01:00:00 1.9 8 Nordeste 11 Nordeste 0 -- -- 92
2019-12-06 00:00:00 1.7 6 Nordeste 12 Nordeste 0 -- -- 90
2019-12-05 23:00:00 3 9 Nordeste 15 Nordeste 0 -- -- 89
2019-12-05 22:00:00 4.5 12 Nordeste 26 Este 0 -- -- 86
2019-12-05 21:00:00 5.7 21 Este 34 Este 0 -- -- 83
2019-12-05 20:00:00 6.5 27 Este 40 Este 0 -- -- 81
2019-12-05 19:00:00 7.2 33 Este 44 Este 0 -- -- 78
2019-12-05 18:00:00 7.2 27 Este 43 Este 0 -- -- 80
2019-12-05 17:00:00 8.7 33 Este 48 Este 0 -- -- 74
2019-12-05 16:00:00 9.8 35 Este 50 Este 0 -- -- 70
2019-12-05 15:00:00 9.9 33 Este 48 Este 0 -- -- 68
2019-12-05 14:00:00 10.3 30 Este 44 Este 0 -- -- 68
2019-12-05 13:00:00 9.1 21 Este 29 Este 0 -- -- 76
2019-12-05 12:00:00 8.2 21 Este 32 Este 0 -- -- 78
2019-12-05 11:00:00 5.1 12 Este 18 Este 0 -- -- 91
2019-12-05 10:00:00 0.6 3 Noroeste 7 Noroeste 0 -- -- 87
2019-12-05 09:00:00 1.1 0 Calma 3 Noroeste 0 -- -- 87
2019-12-05 08:00:00 0.3 0 Calma 0 Calma 0 -- -- 86
2019-12-05 07:00:00 1 0 Calma 0 Calma 0 -- -- 86
2019-12-05 06:00:00 0.4 0 Calma 0 Calma 0 -- -- 87
2019-12-05 05:00:00 0.9 0 Calma 0 Calma 0 -- -- 87
2019-12-05 04:00:00 0.9 0 Calma 0 Calma 0 -- -- 87
2019-12-05 03:00:00 1 0 Calma 0 Calma 0 -- -- 85
2019-12-05 02:00:00 1.4 0 Calma 0 Calma 0 -- -- 84
2019-12-05 01:00:00 2.4 5 Sudeste 18 Este 0 -- -- 80
2019-12-05 00:00:00 1.8 10 Nordeste 15 Norte 0 -- -- 83
2019-12-04 23:00:00 2.7 10 Nordeste 14 Norte 0 -- -- 80
2019-12-04 22:00:00 2.7 5 Norte 18 Este 0 -- -- 83
2019-12-04 21:00:00 3.9 15 Este 18 Este 0 -- -- 81
2019-12-04 20:00:00 4.7 9 Nordeste 14 Nordeste 0 -- -- 78
2019-12-04 19:00:00 5.9 12 Nordeste 13 Nordeste 0 -- -- 81
2019-12-04 18:00:00 7.9 8 Norte 10 Nordeste 0 -- -- 72
2019-12-04 17:00:00 9.7 8 Norte 17 Nordeste 0 -- -- 66
2019-12-04 16:00:00 10.4 13 Norte 21 Norte 0 -- -- 62
2019-12-04 15:00:00 9.5 13 Norte 19 Norte 0 -- -- 66
2019-12-04 14:00:00 8.8 13 Norte 17 Nordeste 0 -- -- 70
2019-12-04 13:00:00 6.8 13 Norte 17 Nordeste 0 -- -- 75
2019-12-04 12:00:00 5 13 Norte 18 Norte 0 -- -- 81
2019-12-04 11:00:00 1.5 7 Norte 14 Nordeste 0 -- -- 88
2019-12-04 10:00:00 0.5 8 Nordeste 13 Nordeste 0 -- -- 87
2019-12-04 09:00:00 -1.4 12 Este 14 Este 0 -- -- 91
2019-12-04 08:00:00 -1.7 6 Nordeste 15 Nordeste 0 -- -- 90
2019-12-04 07:00:00 -1.7 8 Nordeste 12 Nordeste 0 -- -- 92
2019-12-04 06:00:00 -2.1 7 Nordeste 10 Norte 0 -- -- 92
2019-12-04 05:00:00 -2 9 Norte 12 Norte 0 -- -- 92
2019-12-04 04:00:00 -1.1 6 Norte 10 Nordeste 0 -- -- 92
2019-12-04 03:00:00 -1.8 6 Nordeste 13 Nordeste 0 -- -- 92
2019-12-04 02:00:00 -2.8 8 Norte 14 Norte 0 -- -- 91
2019-12-04 01:00:00 -1.9 3 Norte 16 Nordeste 0 -- -- 89
2019-12-04 00:00:00 -1.8 11 Norte 13 Norte 0 -- -- 90
2019-12-03 23:00:00 -0.9 10 Nordeste 12 Nordeste 0 -- -- 90
2019-12-03 22:00:00 -0.5 8 Norte 11 Nordeste 0 -- -- 88
2019-12-03 21:00:00 0.2 7 Nordeste 13 Este 0 -- -- 86
2019-12-03 20:00:00 1.3 12 Este 21 Este 0 -- -- 84
2019-12-03 19:00:00 2.3 18 Sudeste 22 Este 0 -- -- 82
2019-12-03 18:00:00 3.5 10 Sudeste 20 Sudeste 0 -- -- 77
2019-12-03 17:00:00 5.6 16 Este 22 Este 0 -- -- 68
2019-12-03 16:00:00 6.8 3 Nordeste 9 Nordeste 0 -- -- 64
2019-12-03 15:00:00 6.5 3 Oeste 12 Este 0 -- -- 67
2019-12-03 14:00:00 5.3 5 Este 10 Este 0 -- -- 70
2019-12-03 13:00:00 4 5 Este 10 Este 0 -- -- 72
2019-12-03 12:00:00 2.1 4 Noroeste 9 Oeste 0 -- -- 82
2019-12-03 11:00:00 0.3 4 Norte 9 Norte 0 -- -- 89
2019-12-03 10:00:00 -1.7 0 Calma 6 Norte 0 -- -- 95
2019-12-03 09:00:00 -3.4 0 Calma 9 Norte 0 -- -- 93
2019-12-03 08:00:00 -3.1 6 Nordeste 9 Norte 0 -- -- 93
2019-12-03 07:00:00 -2.8 4 Norte 8 Nordeste 0 -- -- 91
2019-12-03 06:00:00 -1.5 8 Nordeste 10 Nordeste 0 -- -- 92
2019-12-03 05:00:00 -1.6 5 Nordeste 8 Nordeste 0 -- -- 90
2019-12-03 04:00:00 -0.9 3 Sudeste 5 Nordeste 0 -- -- 91
2019-12-03 03:00:00 -0.9 5 Norte 7 Norte 0 -- -- 90
2019-12-03 02:00:00 -0.5 3 Nordeste 11 Sudoeste 0 -- -- 88
2019-12-03 01:00:00 0.5 0 Calma 6 Sur 0 -- -- 87
2019-12-03 00:00:00 0.6 2 Norte 9 Noroeste 0 -- -- 86
2019-12-02 23:00:00 0.5 5 Norte 18 Este 0 -- -- 87
2019-12-02 22:00:00 1.5 16 Este 24 Este 0 -- -- 86
2019-12-02 21:00:00 2.3 17 Este 22 Este 0 -- -- 87
2019-12-02 20:00:00 3.2 18 Este 24 Este 0 -- -- 86
2019-12-02 19:00:00 4.5 17 Este 27 Nordeste 0 -- -- 83
2019-12-02 18:00:00 7.2 13 Este 26 Nordeste 0 -- -- 70
2019-12-02 17:00:00 8.6 21 Nordeste 33 Nordeste 0 -- -- 62
2019-12-02 16:00:00 9.3 22 Norte 34 Nordeste 0 -- -- 60
2019-12-02 15:00:00 9.7 21 Nordeste 33 Nordeste 0 -- -- 57
2019-12-02 14:00:00 10 24 Nordeste 32 Nordeste 0 -- -- 58
2019-12-02 13:00:00 8.8 19 Nordeste 24 Nordeste 0 -- -- 67
2019-12-02 12:00:00 7.7 11 Nordeste 18 Nordeste 0 -- -- 70
2019-12-02 11:00:00 6.2 15 Este 21 Nordeste 0 -- -- 80
2019-12-02 10:00:00 3.9 8 Nordeste 19 Este 0 -- -- 86
2019-12-02 09:00:00 2.3 16 Nordeste 22 Este 0 -- -- 84
2019-12-02 08:00:00 1 15 Este 17 Nordeste 0 -- -- 89
2019-12-02 07:00:00 0.4 13 Nordeste 15 Nordeste 0 -- -- 91
2019-12-02 06:00:00 0.9 14 Nordeste 17 Nordeste 0 -- -- 90
2019-12-02 05:00:00 0.9 13 Nordeste 17 Nordeste 0 -- -- 90
2019-12-02 04:00:00 1.6 13 Nordeste 23 Nordeste 0 -- -- 88
2019-12-02 03:00:00 2.2 17 Nordeste 22 Nordeste 0 -- -- 88
2019-12-02 02:00:00 2.1 15 Nordeste 19 Norte 0 -- -- 89
2019-12-02 01:00:00 2.6 14 Nordeste 20 Norte 0 -- -- 88
2019-12-02 00:00:00 3.9 13 Norte 20 Norte 0 -- -- 87
2019-12-01 23:00:00 4.4 13 Norte 25 Nordeste 0 -- -- 85
2019-12-01 22:00:00 4.8 15 Norte 20 Norte 0 -- -- 86
2019-12-01 21:00:00 4.9 11 Norte 21 Norte 0 -- -- 87
2019-12-01 20:00:00 5.1 15 Norte 20 Norte 0 -- -- 84
2019-12-01 19:00:00 5.7 8 Norte 12 Norte 0 -- -- 90
2019-12-01 18:00:00 6.4 10 Este 16 Este 0.2 -- -- 87
2019-12-01 17:00:00 7.5 13 Este 22 Este 0 -- -- 83
2019-12-01 16:00:00 7.8 17 Este 26 Este 0 -- -- 83
2019-12-01 15:00:00 7.5 20 Este 29 Nordeste 0 -- -- 87
2019-12-01 14:00:00 7 22 Nordeste 27 Nordeste 0 -- -- 87
2019-12-01 13:00:00 6.7 23 Este 27 Este 0 -- -- 91
2019-12-01 12:00:00 6.6 21 Este 28 Este 0 -- -- 93
2019-12-01 11:00:00 6.4 15 Este 18 Este 0 -- -- 95
2019-12-01 10:00:00 5.8 11 Sudeste 17 Sudeste 0.6 -- -- 95
2019-12-01 09:00:00 5.5 15 Sudeste 24 Sudeste 0.4 -- -- 95
2019-12-01 08:00:00 5.3 18 Sudeste 24 Sudeste 1 -- -- 94
2019-12-01 07:00:00 5.5 19 Sur 28 Sur 0.2 -- -- 94
2019-12-01 06:00:00 5.5 23 Sur 34 Sur 0.2 -- -- 93
2019-12-01 05:00:00 5.8 26 Sur 35 Sur 0.2 -- -- 94
2019-12-01 04:00:00 5.7 18 Sur 27 Sur 0 -- -- 94
2019-12-01 03:00:00 5.5 17 Sur 27 Sur 0.2 -- -- 93
2019-12-01 02:00:00 5.5 16 Sur 29 Sur 0.2 -- -- 93
2019-12-01 01:00:00 5.5 24 Sur 35 Sur 0 -- -- 90
2019-12-01 00:00:00 5.5 18 Sudoeste 25 Sudoeste 0 -- -- 88
2019-11-30 23:00:00 4.9 10 Sur 18 Sur 0 -- -- 87
2019-11-30 22:00:00 5 10 Sur 17 Sur 0 -- -- 86
2019-11-30 21:00:00 5.8 9 Sudoeste 14 Sur 0 -- -- 80
2019-11-30 20:00:00 6.5 5 Sudoeste 13 Sudoeste 0 -- -- 79
2019-11-30 19:00:00 6.9 8 Sur 14 Sur 0 -- -- 83
2019-11-30 18:00:00 8.4 6 Sudoeste 13 Oeste 0.2 -- -- 77
2019-11-30 17:00:00 10 9 Norte 20 Sudoeste 0 -- -- 79
2019-11-30 16:00:00 9.7 10 Oeste 19 Sudoeste 0 -- -- 86
2019-11-30 15:00:00 8.6 5 Oeste 32 Oeste 0.2 -- -- 87
2019-11-30 14:00:00 8.4 9 Noroeste 40 Noroeste 2.6 -- -- 91
2019-11-30 13:00:00 10.2 0 Calma 8 Oeste 0 -- -- 87
2019-11-30 12:00:00 9.9 4 Oeste 41 Oeste 0.4 -- -- 91
2019-11-30 11:00:00 11.8 27 Sudoeste 46 Sudoeste 0.2 -- -- 94
2019-11-30 10:00:00 11.2 22 Sudoeste 40 Sudoeste 0.8 -- -- 95
2019-11-30 09:00:00 11 29 Sur 43 Sur 0 -- -- 95
2019-11-30 08:00:00 10.8 28 Sur 44 Sur 0 -- -- 95
2019-11-30 07:00:00 10.8 28 Sur 39 Sur 0.2 -- -- 94
2019-11-30 06:00:00 11 25 Sur 42 Sudoeste 0 -- -- 93
2019-11-30 05:00:00 11 28 Sudoeste 39 Sudoeste 0 -- -- 95
2019-11-30 04:00:00 11.2 22 Sudoeste 37 Sudoeste 0 -- -- 95
2019-11-30 03:00:00 10.9 19 Sudoeste 31 Sudoeste 0 -- -- 96
2019-11-30 02:00:00 10.2 14 Sur 21 Sur 0.2 -- -- 95
2019-11-30 01:00:00 10 13 Sur 17 Sur 0 -- -- 94
2019-11-30 00:00:00 10.1 5 Sur 13 Sur 0.4 -- -- 94
2019-11-29 23:00:00 10.1 12 Sur 14 Sur 0.6 -- -- 91
2019-11-29 22:00:00 10.2 5 Sur 13 Sur 0 -- -- 88
2019-11-29 21:00:00 10 11 Sur 14 Sur 0 -- -- 89
2019-11-29 20:00:00 9 8 Sudeste 13 Sudeste 0 -- -- 89
2019-11-29 19:00:00 9.9 9 Sur 15 Sudeste 0 -- -- 87
2019-11-29 18:00:00 10.9 9 Sudeste 12 Sudeste 0 -- -- 84
2019-11-29 17:00:00 12.2 3 Sur 10 Sudoeste 0 -- -- 73
2019-11-29 16:00:00 12.4 10 Sur 14 Sur 0 -- -- 75
2019-11-29 15:00:00 12.7 10 Sur 15 Sudeste 0 -- -- 75
2019-11-29 14:00:00 10.9 5 Este 12 Norte 0 -- -- 81
2019-11-29 13:00:00 10.1 8 Norte 11 Nordeste 0 -- -- 85
2019-11-29 12:00:00 8.1 5 Norte 15 Norte 0 -- -- 94
2019-11-29 11:00:00 8.2 4 Nordeste 10 Nordeste 0 -- -- 94
2019-11-29 10:00:00 7.1 3 Nordeste 9 Sur 0 -- -- 93
2019-11-29 09:00:00 7.3 7 Sur 10 Sur 0 -- -- 91
2019-11-29 08:00:00 7.9 0 Calma 6 Sur 0 -- -- 91
2019-11-29 07:00:00 7.4 3 Sur 12 Norte 0 -- -- 92
2019-11-29 06:00:00 7.9 3 Sudoeste 10 Sudoeste 0 -- -- 93
2019-11-29 05:00:00 8.1 9 Sudoeste 12 Sudoeste 0 -- -- 94
2019-11-29 04:00:00 8.8 7 Oeste 18 Sudoeste 0 -- -- 95
2019-11-29 03:00:00 8.8 16 Sudoeste 21 Sudoeste 0 -- -- 95
2019-11-29 02:00:00 8.8 11 Sudoeste 19 Sudoeste 0 -- -- 95
2019-11-29 01:00:00 9.1 15 Sudoeste 25 Sudoeste 0 -- -- 94
2019-11-29 00:00:00 9.7 14 Sudoeste 22 Sudoeste 0 -- -- 94
2019-11-28 23:00:00 9.9 18 Sudoeste 28 Sudoeste 0 -- -- 94
2019-11-28 22:00:00 10.2 19 Sudoeste 30 Sudoeste 0 -- -- 94
2019-11-28 21:00:00 10.1 21 Sudoeste 34 Sur 0.2 -- -- 94
2019-11-28 20:00:00 10.1 23 Sudoeste 33 Sur 0 -- -- 94
2019-11-28 19:00:00 10 19 Sur 31 Sudoeste 0 -- -- 92
2019-11-28 18:00:00 10.2 19 Sudoeste 45 Sudoeste 0 -- -- 85
2019-11-28 17:00:00 10.5 32 Sudoeste 52 Sudoeste 0 -- -- 82
2019-11-28 16:00:00 11 21 Sudoeste 44 Sudoeste 0 -- -- 84
2019-11-28 15:00:00 11.2 39 Sudoeste 57 Sudoeste 0 -- -- 85
2019-11-28 14:00:00 11.2 18 Sur 37 Sudoeste 0 -- -- 86
2019-11-28 13:00:00 11.1 21 Sudoeste 43 Sudoeste 0 -- -- 87
2019-11-28 12:00:00 11.2 31 Sudoeste 44 Sudoeste 0 -- -- 84
2019-11-28 11:00:00 9.9 23 Sudoeste 44 Sudoeste 0 -- -- 93
2019-11-28 10:00:00 9.4 21 Sur 40 Sudoeste 0 -- -- 93
2019-11-28 09:00:00 9.4 26 Sudoeste 43 Sudoeste 0 -- -- 92
2019-11-28 08:00:00 9.3 27 Sudoeste 42 Sudoeste 0 -- -- 93
2019-11-28 07:00:00 9 27 Sudoeste 39 Sudoeste 0 -- -- 92
2019-11-28 06:00:00 8.9 23 Sudoeste 44 Sudoeste 0 -- -- 93
2019-11-28 05:00:00 8.7 25 Sur 41 Sudoeste 0 -- -- 93
2019-11-28 04:00:00 8.5 23 Sudoeste 37 Sur 0 -- -- 91
2019-11-28 03:00:00 8.5 22 Sudoeste 36 Sudoeste 0 -- -- 89
2019-11-28 02:00:00 8.5 26 Sudoeste 39 Sudoeste 0 -- -- 88
2019-11-28 01:00:00 8.3 23 Sudoeste 39 Sudoeste 0 -- -- 90
2019-11-28 00:00:00 7.7 24 Sudoeste 35 Sudoeste 0 -- -- 91
2019-11-27 23:00:00 7.7 17 Sudoeste 33 Sudoeste 0 -- -- 89
2019-11-27 22:00:00 8.2 21 Sudoeste 36 Sudoeste 0 -- -- 87
2019-11-27 21:00:00 8.2 26 Sudoeste 42 Sudoeste 0.2 -- -- 87
2019-11-27 20:00:00 8.6 28 Sudoeste 44 Sudoeste 0 -- -- 84
2019-11-27 19:00:00 8.9 26 Sudoeste 39 Sudoeste 0 -- -- 82
2019-11-27 18:00:00 9.2 23 Sudoeste 40 Sudoeste 0 -- -- 83
2019-11-27 17:00:00 9.6 27 Sudoeste 40 Sudoeste 0 -- -- 83
2019-11-27 16:00:00 9.6 22 Sudoeste 35 Sudoeste 0 -- -- 90
2019-11-27 15:00:00 9.2 24 Sudoeste 35 Sudoeste 0.8 -- -- 91
2019-11-27 14:00:00 8.9 25 Sudoeste 45 Sudoeste 0.4 -- -- 91
2019-11-27 06:00:00 -- -- -- -- -- -- -- -- --
2019-11-27 05:00:00 6.8 23 Sudoeste 36 Sudoeste 0 -- -- 86
2019-11-27 04:00:00 6.6 22 Sudoeste 35 Sudoeste 0 -- -- 86
2019-11-27 03:00:00 6.9 26 Sudoeste 38 Sudoeste 0 -- -- 83
2019-11-27 02:00:00 7.1 22 Sudoeste 33 Sudoeste 0 -- -- 79
2019-11-27 01:00:00 7.8 23 Sudoeste 48 Sudoeste 0 -- -- 75
2019-11-27 00:00:00 7.9 23 Sudoeste 45 Oeste 0 -- -- 86
2019-11-26 23:00:00 8.9 31 Sudoeste 48 Sudoeste 0 -- -- 82
2019-11-26 22:00:00 9.5 26 Sudoeste 40 Sudoeste 0 -- -- 87
2019-11-26 21:00:00 9.9 31 Sudoeste 57 Sudoeste 0 -- -- 84
2019-11-26 20:00:00 10.7 38 Sudoeste 60 Sudoeste 0 -- -- 82
2019-11-26 19:00:00 12.2 38 Sudoeste 58 Sudoeste 0 -- -- 73
2019-11-26 18:00:00 12.8 30 Sudoeste 52 Sudoeste 0 -- -- 74
2019-11-26 17:00:00 14 36 Sudoeste 60 Sudoeste 0 -- -- 63
2019-11-26 16:00:00 14.1 36 Sudoeste 50 Sudoeste 0 -- -- 75
2019-11-26 15:00:00 14.5 38 Sudoeste 52 Sudoeste 0 -- -- 76
2019-11-26 14:00:00 13.5 29 Sudoeste 44 Sudoeste 0 -- -- 84
2019-11-26 13:00:00 12.6 24 Sudoeste 55 Sur 0 -- -- 86
2019-11-26 12:00:00 12.4 33 Sudoeste 50 Sur 0.2 -- -- 95
2019-11-26 11:00:00 11.4 29 Sudoeste 40 Sudoeste 0 -- -- 95
2019-11-26 10:00:00 10.9 25 Sudoeste 35 Sur 0.2 -- -- 95
2019-11-26 09:00:00 10.1 18 Sur 35 Sur 0 -- -- 95
2019-11-26 08:00:00 9.7 26 Sur 36 Sur 0 -- -- 94
2019-11-26 07:00:00 9.6 21 Sudoeste 33 Sur 0 -- -- 94
2019-11-26 06:00:00 9.4 22 Sur 31 Sur 0 -- -- 94
2019-11-26 05:00:00 9.4 11 Sur 26 Sur 0 -- -- 93
2019-11-26 04:00:00 9.3 19 Sur 28 Sur 0 -- -- 93
2019-11-26 03:00:00 8.9 16 Sur 22 Sur 0 -- -- 93
2019-11-26 02:00:00 8.3 15 Sur 18 Sur 0 -- -- 92
2019-11-26 01:00:00 8.5 16 Sur 21 Sur 0 -- -- 90
2019-11-26 00:00:00 8.5 14 Sur 20 Sur 0 -- -- 89
2019-11-25 23:00:00 8.7 12 Sur 20 Sur 0 -- -- 87
2019-11-25 22:00:00 8.6 10 Sur 18 Sudoeste 0 -- -- 87
2019-11-25 21:00:00 8.9 10 Sudoeste 15 Sudoeste 0 -- -- 88
2019-11-25 20:00:00 9.3 11 Sudoeste 17 Sudoeste 0 -- -- 86
2019-11-25 19:00:00 10.2 11 Sudoeste 17 Sudoeste 0 -- -- 80
2019-11-25 18:00:00 10.7 3 Oeste 26 Sudoeste 0 -- -- 74
2019-11-25 17:00:00 11.5 15 Sudoeste 24 Sudoeste 0 -- -- 76
2019-11-25 16:00:00 12 18 Sudoeste 30 Sudoeste 0 -- -- 73
2019-11-25 15:00:00 12.4 23 Sudoeste 31 Sudoeste 0 -- -- 72
2019-11-25 14:00:00 13 22 Sudoeste 31 Sudoeste 0 -- -- 69
2019-11-25 13:00:00 12.4 15 Sudoeste 28 Sudoeste 0 -- -- 70
2019-11-25 12:00:00 11.4 19 Sudoeste 25 Sudoeste 0 -- -- 80
2019-11-25 11:00:00 9.8 13 Sudoeste 19 Sudoeste 0 -- -- 96
2019-11-25 10:00:00 8.3 8 Sudoeste 17 Sudoeste 0 -- -- 95
2019-11-25 09:00:00 8.4 12 Sudoeste 19 Sudoeste 0 -- -- 95
2019-11-25 08:00:00 8.2 14 Sudoeste 24 Sudoeste 0 -- -- 94
2019-11-25 07:00:00 7.9 12 Sur 22 Sur 0 -- -- 94
2019-11-25 06:00:00 8 16 Sur 21 Sudoeste 0 -- -- 95
2019-11-25 05:00:00 7.8 4 Sudeste 10 Sudoeste 0 -- -- 95
2019-11-25 04:00:00 8 9 Sudoeste 16 Sur 0 -- -- 95
2019-11-25 03:00:00 8.4 8 Sur 15 Sudoeste 0 -- -- 96
2019-11-25 02:00:00 8.4 8 Sudoeste 24 Sudoeste 0 -- -- 95
2019-11-25 01:00:00 8.4 15 Sudoeste 27 Sur 0 -- -- 95
2019-11-25 00:00:00 8.1 21 Sur 31 Sur 0 -- -- 95
2019-11-24 23:00:00 7.8 21 Sur 34 Sur 0.2 -- -- 95
2019-11-24 22:00:00 7.8 25 Sur 35 Sudoeste 0.6 -- -- 94
2019-11-24 21:00:00 7.8 24 Sur 33 Sudoeste 0.2 -- -- 94
2019-11-24 20:00:00 7.3 17 Sur 24 Sur 0 -- -- 92
2019-11-24 19:00:00 7.2 16 Sur 26 Sudoeste 0.2 -- -- 90
2019-11-24 18:00:00 7.6 18 Sudoeste 31 Sudoeste 0.2 -- -- 86
2019-11-24 17:00:00 8 16 Sudoeste 28 Sudoeste 0 -- -- 83
2019-11-24 16:00:00 8.1 18 Sudoeste 33 Sudoeste 0 -- -- 80
2019-11-24 15:00:00 8.5 20 Sudoeste 27 Sudoeste 0 -- -- 76
2019-11-24 14:00:00 7.9 15 Sudoeste 26 Sudoeste 0 -- -- 78
2019-11-24 13:00:00 6.3 18 Sudoeste 25 Sudoeste 0 -- -- 82
2019-11-24 12:00:00 5.1 13 Sur 19 Sur 0 -- -- 85
2019-11-24 11:00:00 4.2 11 Sur 18 Sur 0 -- -- 84
2019-11-24 10:00:00 3.3 11 Sur 16 Sur 0 -- -- 86
2019-11-24 09:00:00 2.5 11 Sur 13 Sudoeste 0 -- -- 85
2019-11-24 08:00:00 2.5 13 Sudoeste 19 Oeste 0 -- -- 84
2019-11-24 07:00:00 3 17 Oeste 22 Oeste 0 -- -- 82
2019-11-24 06:00:00 2.5 15 Oeste 23 Oeste 0 -- -- 84
2019-11-24 05:00:00 2.8 17 Oeste 23 Oeste 0 -- -- 83
2019-11-24 04:00:00 3.2 14 Sudoeste 26 Oeste 0 -- -- 82
2019-11-24 03:00:00 3.8 21 Oeste 25 Oeste 0 -- -- 82
2019-11-24 02:00:00 3.8 13 Sudoeste 26 Oeste 0 -- -- 81
2019-11-24 01:00:00 3.9 12 Sudoeste 22 Oeste 0 -- -- 79
2019-11-24 00:00:00 4.8 16 Oeste 32 Oeste 0 -- -- 74
2019-11-23 23:00:00 4.9 18 Oeste 26 Oeste 0 -- -- 76
2019-11-23 22:00:00 5.2 22 Oeste 32 Oeste 0 -- -- 78
2019-11-23 21:00:00 4.9 13 Oeste 24 Oeste 0 -- -- 80
2019-11-23 20:00:00 5 18 Oeste 26 Oeste 0 -- -- 80
2019-11-23 19:00:00 5.7 17 Oeste 33 Noroeste 0 -- -- 77
2019-11-23 18:00:00 6.9 24 Noroeste 37 Noroeste 0 -- -- 72
2019-11-23 17:00:00 7.8 24 Noroeste 48 Noroeste 0 -- -- 66
2019-11-23 16:00:00 8.6 33 Noroeste 53 Noroeste 0 -- -- 65
2019-11-23 15:00:00 9.4 35 Noroeste 53 Noroeste 0 -- -- 58
2019-11-23 14:00:00 9.3 37 Noroeste 57 Oeste 0 -- -- 58
2019-11-23 13:00:00 8.6 28 Noroeste 50 Noroeste 0 -- -- 63
2019-11-23 12:00:00 8 37 Noroeste 56 Noroeste 0 -- -- 63
2019-11-23 11:00:00 7.1 39 Noroeste 51 Noroeste 0 -- -- 71
2019-11-23 10:00:00 5.6 18 Oeste 35 Oeste 0 -- -- 76
2019-11-23 09:00:00 3.7 20 Oeste 35 Oeste 0 -- -- 80
2019-11-23 08:00:00 4.2 28 Oeste 41 Oeste 0 -- -- 75
2019-11-23 07:00:00 4.4 24 Noroeste 52 Oeste 0 -- -- 75
2019-11-23 06:00:00 4.7 38 Oeste 54 Oeste 0 -- -- 77
2019-11-23 05:00:00 4.5 28 Oeste 68 Oeste 0 -- -- 72
2019-11-23 04:00:00 5.5 35 Oeste 51 Oeste 0 -- -- 74
2019-11-23 03:00:00 5.6 30 Oeste 45 Oeste 0 -- -- 74
2019-11-23 02:00:00 6.1 31 Oeste 46 Oeste 0 -- -- 74
2019-11-23 01:00:00 5.8 28 Oeste 50 Sudoeste 0 -- -- 83
2019-11-23 00:00:00 6.1 31 Sudoeste 46 Sudoeste 0 -- -- 84
2019-11-22 23:00:00 6.3 28 Sudoeste 40 Sudoeste 0 -- -- 84
2019-11-22 22:00:00 6.4 20 Sudoeste 42 Sudoeste 0 -- -- 88
2019-11-22 21:00:00 6.7 25 Sudoeste 47 Sudoeste 0 -- -- 90
2019-11-22 20:00:00 6.9 23 Sudoeste 48 Sudoeste 0.4 -- -- 89
2019-11-22 19:00:00 7.4 29 Sudoeste 46 Sudoeste 0 -- -- 81
2019-11-22 18:00:00 8.2 34 Sudoeste 57 Oeste 0 -- -- 76
2019-11-22 17:00:00 9.5 37 Sudoeste 53 Sudoeste 0 -- -- 76
2019-11-22 16:00:00 11.4 32 Sudoeste 60 Sudoeste 0 -- -- 68
2019-11-22 15:00:00 12.2 42 Sudoeste 69 Sudoeste 0 -- -- 72
2019-11-22 14:00:00 11.6 40 Sudoeste 58 Sudoeste 0 -- -- 82
2019-11-22 13:00:00 9.8 38 Sudoeste 54 Sudoeste 1.4 -- -- 94
2019-11-22 12:00:00 8.8 36 Sur 50 Sur 1 -- -- 94
2019-11-22 11:00:00 7.8 37 Sur 55 Sur 1 -- -- 94
2019-11-22 10:00:00 7 32 Sur 50 Sur 1.2 -- -- 94
2019-11-22 09:00:00 6.8 29 Sur -- -- -- -- -- 93
2019-11-22 08:00:00 6.5 34 Sur 49 Sur 0.8 -- -- 93
2019-11-22 07:00:00 6.4 35 Sur 49 Sur 0.6 -- -- 93
2019-11-22 06:00:00 6.3 29 Sur 43 Sur 0.4 -- -- 93
2019-11-22 05:00:00 6.2 19 Sur 30 Sur 0.2 -- -- 93
2019-11-22 04:00:00 6.1 16 Sur 27 Sur 0 -- -- 92
2019-11-22 03:00:00 5.7 18 Sur 28 Sur 0 -- -- 92
2019-11-22 02:00:00 5.2 14 Sur 23 Sur 0 -- -- 91
2019-11-22 01:00:00 5.2 17 Sur 22 Sur 0 -- -- 89
2019-11-22 00:00:00 5.3 10 Sur 17 Sur 0 -- -- 86
2019-11-21 23:00:00 5.3 12 Sur 20 Sur 0 -- -- 85
2019-11-21 22:00:00 5.1 14 Sur 19 Sur 0 -- -- 82
2019-11-21 21:00:00 5.3 12 Sudoeste 18 Sur 0 -- -- 81
2019-11-21 20:00:00 5.5 6 Sur 13 Sudoeste 0 -- -- 76
2019-11-21 19:00:00 6.1 4 Sudoeste 17 Sudoeste 0 -- -- 71
2019-11-21 18:00:00 7.6 12 Sudoeste 32 Sudoeste 0 -- -- 67
2019-11-21 17:00:00 9 23 Sudoeste 35 Sudoeste 0 -- -- 57
2019-11-21 16:00:00 9.2 23 Sudoeste 34 Sudoeste 0 -- -- 58
2019-11-21 15:00:00 8.9 21 Sudoeste 31 Sudoeste 0 -- -- 60
2019-11-21 14:00:00 9 20 Sudoeste 31 Sudoeste 0.2 -- -- 65
2019-11-21 13:00:00 8 16 Oeste 24 Oeste 0 -- -- 65
2019-11-21 12:00:00 6.8 5 Sudoeste 15 Sudoeste 0 -- -- 83
2019-11-21 11:00:00 6.2 9 Sudoeste 16 Sudoeste 0 -- -- 87
2019-11-21 10:00:00 5.4 9 Sudoeste 13 Sudoeste 0 -- -- 93
2019-11-21 09:00:00 4.3 4 Oeste 15 Sudoeste 0 -- -- 94
2019-11-21 08:00:00 -- -- -- -- -- -- -- -- --
2019-11-21 07:00:00 -- -- -- -- -- -- -- -- --
2019-11-21 06:00:00 -- -- -- -- -- -- -- -- --
2019-11-21 05:00:00 -- -- -- -- -- -- -- -- --
2019-11-21 04:00:00 -- -- -- -- -- -- -- -- --
2019-11-21 03:00:00 -- -- -- -- -- -- -- -- --
2019-11-21 02:00:00 -- -- -- -- -- -- -- -- --
2019-11-21 01:00:00 -- -- -- -- -- -- -- -- --
2019-11-21 00:00:00 -- -- -- -- -- -- -- -- --
2019-11-20 23:00:00 -- -- -- -- -- -- -- -- --
2019-11-20 22:00:00 -- -- -- -- -- -- -- -- --
2019-11-20 21:00:00 -- -- -- -- -- -- -- -- --
2019-11-20 20:00:00 5.8 19 Sur 28 Sur 0 -- -- 93
2019-11-20 19:00:00 5.5 13 Sur 25 Sur 0 -- -- 93
2019-11-20 18:00:00 5.9 16 Sur 25 Sur 0 -- -- 93
2019-11-20 17:00:00 5.9 18 Sudoeste 28 Sudoeste 0 -- -- 93
2019-11-20 16:00:00 5.8 18 Sudoeste 27 Sudoeste 0 -- -- 94
2019-11-20 15:00:00 5.7 19 Sudoeste 29 Sudoeste 0.2 -- -- 94
2019-11-20 14:00:00 5.6 20 Sudoeste 31 Sudoeste 0.2 -- -- 94
2019-11-20 13:00:00 5.8 19 Sur 28 Sur 0.6 -- -- 93
2019-11-20 12:00:00 5.8 18 Sur 25 Sur 0.6 -- -- 94
2019-11-20 11:00:00 5.5 15 Sur 23 Sur 0.6 -- -- 95
2019-11-20 10:00:00 5 15 Sur 21 Sur 0.4 -- -- 95
2019-11-20 09:00:00 4.6 14 Sur 20 Sur 0.8 -- -- 95
2019-11-20 08:00:00 4.5 11 Sur 19 Sur 0.2 -- -- 94
2019-11-20 07:00:00 4.6 11 Sur 20 Sur 0.4 -- -- 94
2019-11-20 06:00:00 4.7 14 Sur 21 Sur 0 -- -- 94
2019-11-20 05:00:00 4.9 13 Sur 17 Sudeste 0 -- -- 94
2019-11-20 04:00:00 4.8 7 Sudeste 10 Sur 0 -- -- 94
2019-11-20 03:00:00 4.8 4 Sur 9 Sudeste 0 -- -- 93
2019-11-20 02:00:00 4.8 6 Sur 8 Sur 0.2 -- -- 93
2019-11-20 01:00:00 4.5 3 Este 4 Noroeste 0.2 -- -- 91
2019-11-20 00:00:00 5 5 Sur 10 Sudeste 0 -- -- 88
2019-11-19 23:00:00 5.2 9 Sudeste 11 Sudeste 0 -- -- 86
2019-11-19 22:00:00 5.2 7 Sudeste 10 Sudeste 0 -- -- 86
2019-11-19 21:00:00 5.2 7 Sudeste 9 Sudeste 0 -- -- 86
2019-11-19 20:00:00 5.4 3 Sudeste 6 Sudeste 0 -- -- 85
2019-11-19 19:00:00 5.6 0 Calma 5 Sur 0 -- -- 81
2019-11-19 18:00:00 5.9 0 Calma 9 Sudoeste 0 -- -- 78
2019-11-19 17:00:00 6.2 6 Sudoeste 12 Sudoeste 0 -- -- 77
2019-11-19 16:00:00 6.5 6 Sudoeste 14 Sudoeste 0 -- -- 74
2019-11-19 15:00:00 6.5 10 Sudoeste 14 Sudoeste 0 -- -- 74
2019-11-19 14:00:00 5.9 7 Sudoeste 14 Sudoeste 0 -- -- 76
2019-11-19 13:00:00 5.5 7 Sur 13 Sur 0 -- -- 79
2019-11-19 12:00:00 2.7 3 Sudeste 6 Sudeste 0 -- -- 91
2019-11-19 11:00:00 0.4 0 Calma 6 Norte 0 -- -- 94
2019-11-19 10:00:00 -2 5 Norte -- -- -- -- -- 94
2019-11-19 09:00:00 -- -- -- -- -- -- -- -- --
2019-11-19 08:00:00 -- -- -- -- -- -- -- -- --
2019-11-19 07:00:00 -- -- -- -- -- -- -- -- --
2019-11-19 06:00:00 -- -- -- -- -- -- -- -- --
2019-11-19 05:00:00 -- -- -- -- -- -- -- -- --
2019-11-19 04:00:00 -- -- -- -- -- -- -- -- --
2019-11-19 03:00:00 -- -- -- -- -- -- -- -- --
2019-11-19 02:00:00 -- -- -- -- -- -- -- -- --
2019-11-19 01:00:00 -- -- -- -- -- -- -- -- --
2019-11-19 00:00:00 -- -- -- -- -- -- -- -- --
2019-11-18 23:00:00 -- -- -- -- -- -- -- -- --
2019-11-18 22:00:00 -- -- -- -- -- -- -- -- --
2019-11-18 21:00:00 -- -- -- -- -- -- -- -- --
2019-11-18 20:00:00 -- -- -- -- -- -- -- -- --
2019-11-18 19:00:00 -- -- -- -- -- -- -- -- --
2019-11-18 18:00:00 -- -- -- -- -- -- -- -- --
2019-11-18 17:00:00 -- -- -- -- -- -- -- -- --
2019-11-18 16:00:00 -- -- -- -- -- -- -- -- --
2019-11-18 15:00:00 -- -- -- -- -- -- -- -- --
2019-11-18 14:00:00 -- -- -- -- -- -- -- -- --
2019-11-18 13:00:00 -- -- -- -- -- -- -- -- --
2019-11-18 12:00:00 -- -- -- -- -- -- -- -- --
2019-11-18 11:00:00 -- -- -- -- -- -- -- -- --
2019-11-18 10:00:00 -- -- -- -- -- -- -- -- --
2019-11-18 09:00:00 -- -- -- -- -- -- -- -- --
2019-11-18 08:00:00 -- -- -- -- -- -- -- -- --
2019-11-18 07:00:00 -- -- -- -- -- -- -- -- --
2019-11-18 06:00:00 -- -- -- -- -- -- -- -- --
2019-11-18 05:00:00 -- -- -- -- -- -- -- -- --
2019-11-18 04:00:00 -- -- -- -- -- -- -- -- --
2019-11-18 03:00:00 -- -- -- -- -- -- -- -- --
2019-11-18 02:00:00 -- -- -- -- -- -- -- -- --
2019-11-18 01:00:00 -- -- -- -- -- -- -- -- --
2019-11-18 00:00:00 -- -- -- -- -- -- -- -- --
2019-11-17 23:00:00 -- -- -- -- -- -- -- -- --
2019-11-17 22:00:00 -- -- -- -- -- -- -- -- --
2019-11-17 21:00:00 -- -- -- -- -- -- -- -- --
2019-11-17 20:00:00 -- -- -- -- -- -- -- -- --
2019-11-17 19:00:00 -- -- -- -- -- -- -- -- --
2019-11-17 18:00:00 -- -- -- -- -- -- -- -- --
2019-11-17 17:00:00 -- -- -- -- -- -- -- -- --
2019-11-17 16:00:00 -- -- -- -- -- -- -- -- --
2019-11-17 15:00:00 -- -- -- -- -- -- -- -- --
2019-11-17 14:00:00 -- -- -- -- -- -- -- -- --
2019-11-17 13:00:00 -- -- -- -- -- -- -- -- --
2019-11-17 12:00:00 -- -- -- -- -- -- -- -- --
2019-11-17 11:00:00 -- -- -- -- -- -- -- -- --
2019-11-17 10:00:00 -- -- -- -- -- -- -- -- --
2019-11-17 09:00:00 -- -- -- -- -- -- -- -- --
2019-11-17 08:00:00 -- -- -- -- -- -- -- -- --
2019-11-17 07:00:00 -- -- -- -- -- -- -- -- --
2019-11-17 06:00:00 -- -- -- -- -- -- -- -- --
2019-11-17 05:00:00 -- -- -- -- -- -- -- -- --
2019-11-17 04:00:00 -- -- -- -- -- -- -- -- --
2019-11-17 03:00:00 -- -- -- -- -- -- -- -- --
2019-11-17 02:00:00 -- -- -- -- -- -- -- -- --
2019-11-17 01:00:00 -- -- -- -- -- -- -- -- --
2019-11-17 00:00:00 -- -- -- -- -- -- -- -- --
2019-11-16 23:00:00 -- -- -- -- -- -- -- -- --
2019-11-16 22:00:00 -- -- -- -- -- -- -- -- --
2019-11-16 21:00:00 -- -- -- -- -- -- -- -- --
2019-11-16 20:00:00 -- -- -- -- -- -- -- -- --
2019-11-16 19:00:00 -- -- -- -- -- -- -- -- --
2019-11-16 18:00:00 -- -- -- -- -- -- -- -- --
2019-11-16 17:00:00 -- -- -- -- -- -- -- -- --
2019-11-16 16:00:00 -- -- -- -- -- -- -- -- --
2019-11-16 15:00:00 -- -- -- -- -- -- -- -- --
2019-11-16 14:00:00 -- -- -- -- -- -- -- -- --
2019-11-16 13:00:00 -- -- -- -- -- -- -- -- --
2019-11-16 12:00:00 -- -- -- -- -- -- -- -- --
2019-11-16 11:00:00 -- -- -- -- -- -- -- -- --
2019-11-16 10:00:00 -- -- -- -- -- -- -- -- --
2019-11-16 09:00:00 -- -- -- -- -- -- -- -- --
2019-11-16 08:00:00 -- -- -- -- -- -- -- -- --
2019-11-16 07:00:00 -- -- -- -- -- -- -- -- --
2019-11-16 06:00:00 -- -- -- -- -- -- -- -- --
2019-11-16 05:00:00 -- -- -- -- -- -- -- -- --
2019-11-16 04:00:00 -- -- -- -- -- -- -- -- --
2019-11-16 03:00:00 -- -- -- -- -- -- -- -- --
2019-11-16 02:00:00 -- -- -- -- -- -- -- -- --
2019-11-16 01:00:00 -- -- -- -- -- -- -- -- --
2019-11-16 00:00:00 -- -- -- -- -- -- -- -- --
2019-11-15 23:00:00 -- -- -- -- -- -- -- -- --
2019-11-15 22:00:00 -- -- -- -- -- -- -- -- --
2019-11-15 21:00:00 -- -- -- -- -- -- -- -- --
2019-11-15 20:00:00 -- -- -- -- -- -- -- -- --
2019-11-15 19:00:00 -- -- -- -- -- -- -- -- --
2019-11-15 18:00:00 -- -- -- -- -- -- -- -- --
2019-11-15 17:00:00 -- -- -- -- -- -- -- -- --
2019-11-15 16:00:00 -- -- -- -- -- -- -- -- --
2019-11-15 15:00:00 -- -- -- -- -- -- -- -- --
2019-11-15 14:00:00 -- -- -- -- -- -- -- -- --
2019-11-15 13:00:00 -- -- -- -- -- -- -- -- --
2019-11-15 12:00:00 -- -- -- -- -- -- -- -- --
2019-11-15 11:00:00 -- -- -- -- -- -- -- -- --
2019-11-15 10:00:00 -- -- -- -- -- -- -- -- --
2019-11-15 09:00:00 -- -- -- -- -- -- -- -- --
2019-11-15 08:00:00 -- -- -- -- -- -- -- -- --
2019-11-15 07:00:00 -- -- -- -- -- -- -- -- --
2019-11-15 06:00:00 -- -- -- -- -- -- -- -- --
2019-11-15 05:00:00 -- -- -- -- -- -- -- -- --
2019-11-15 04:00:00 -- -- -- -- -- -- -- -- --
2019-11-15 03:00:00 -- -- -- -- -- -- -- -- --
2019-11-15 02:00:00 -- -- -- -- -- -- -- -- --
2019-11-15 01:00:00 -- -- -- -- -- -- -- -- --
2019-11-15 00:00:00 -- -- -- -- -- -- -- -- --